sensor_id;sensor_type;location;lat;lon;timestamp;temperature;humidity
30648;DHT22;17683;53.360;9.736;2023-01-05T00:01:07;9.70;99.90
30648;DHT22;17683;53.360;9.736;2023-01-05T00:03:34;9.80;99.90
30648;DHT22;17683;53.360;9.736;2023-01-05T00:06:10;9.80;99.90
30648;DHT22;17683;53.360;9.736;2023-01-05T00:08:36;9.80;99.90
30648;DHT22;17683;53.360;9.736;2023-01-05T00:11:22;9.80;99.90
30648;DHT22;17683;53.360;9.736;2023-01-05T00:14:12;9.80;99.90
30648;DHT22;17683;53.360;9.736;2023-01-05T00:16:56;9.80;99.90
30648;DHT22;17683;53.360;9.736;2023-01-05T00:19:40;9.80;99.90
30648;DHT22;17683;53.360;9.736;2023-01-05T00:22:26;9.80;99.90
30648;DHT22;17683;53.360;9.736;2023-01-05T00:24:58;9.80;99.90
30648;DHT22;17683;53.360;9.736;2023-01-05T00:27:25;9.80;99.90
30648;DHT22;17683;53.360;9.736;2023-01-05T00:29:50;9.80;99.90
30648;DHT22;17683;53.360;9.736;2023-01-05T00:32:16;9.80;99.90
30648;DHT22;17683;53.360;9.736;2023-01-05T00:34:42;9.80;99.90
30648;DHT22;17683;53.360;9.736;2023-01-05T00:37:07;9.80;99.90
30648;DHT22;17683;53.360;9.736;2023-01-05T00:39:33;9.80;99.90
30648;DHT22;17683;53.360;9.736;2023-01-05T00:41:59;9.80;99.90
30648;DHT22;17683;53.360;9.736;2023-01-05T00:44:25;9.70;99.90
30648;DHT22;17683;53.360;9.736;2023-01-05T00:46:50;9.70;99.90
30648;DHT22;17683;53.360;9.736;2023-01-05T00:49:16;9.70;99.90
30648;DHT22;17683;53.360;9.736;2023-01-05T00:51:42;9.70;99.90
30648;DHT22;17683;53.360;9.736;2023-01-05T00:54:07;9.70;99.90
30648;DHT22;17683;53.360;9.736;2023-01-05T00:56:33;9.70;99.90
30648;DHT22;17683;53.360;9.736;2023-01-05T00:58:59;9.70;99.90
30648;DHT22;17683;53.360;9.736;2023-01-05T01:01:24;9.70;99.90
30648;DHT22;17683;53.360;9.736;2023-01-05T01:03:50;9.70;99.90
30648;DHT22;17683;53.360;9.736;2023-01-05T01:06:24;9.60;99.90
30648;DHT22;17683;53.360;9.736;2023-01-05T01:08:49;9.60;99.90
30648;DHT22;17683;53.360;9.736;2023-01-05T01:11:15;9.60;99.90
30648;DHT22;17683;53.360;9.736;2023-01-05T01:13:44;9.60;99.90
30648;DHT22;17683;53.360;9.736;2023-01-05T01:16:13;9.60;99.90
30648;DHT22;17683;53.360;9.736;2023-01-05T01:18:40;9.60;99.90
30648;DHT22;17683;53.360;9.736;2023-01-05T01:21:06;9.50;99.90
30648;DHT22;17683;53.360;9.736;2023-01-05T01:23:32;9.60;99.90
30648;DHT22;17683;53.360;9.736;2023-01-05T01:26:03;9.50;99.90
30648;DHT22;17683;53.360;9.736;2023-01-05T01:28:29;9.50;99.90
30648;DHT22;17683;53.360;9.736;2023-01-05T01:30:56;9.60;99.90
30648;DHT22;17683;53.360;9.736;2023-01-05T01:33:21;9.50;99.90
30648;DHT22;17683;53.360;9.736;2023-01-05T01:35:47;9.50;99.90
30648;DHT22;17683;53.360;9.736;2023-01-05T01:38:13;9.60;99.90
30648;DHT22;17683;53.360;9.736;2023-01-05T01:40:40;9.50;99.90
30648;DHT22;17683;53.360;9.736;2023-01-05T01:43:40;9.50;99.90
30648;DHT22;17683;53.360;9.736;2023-01-05T01:46:07;9.50;99.90
30648;DHT22;17683;53.360;9.736;2023-01-05T01:48:34;9.50;99.90
30648;DHT22;17683;53.360;9.736;2023-01-05T01:51:06;9.50;99.90
30648;DHT22;17683;53.360;9.736;2023-01-05T01:53:36;9.40;99.90
30648;DHT22;17683;53.360;9.736;2023-01-05T01:56:05;9.40;99.90
30648;DHT22;17683;53.360;9.736;2023-01-05T01:58:32;9.40;99.90
30648;DHT22;17683;53.360;9.736;2023-01-05T02:00:58;9.40;99.90
30648;DHT22;17683;53.360;9.736;2023-01-05T02:03:28;9.40;99.90
30648;DHT22;17683;53.360;9.736;2023-01-05T02:05:55;9.40;99.90
30648;DHT22;17683;53.360;9.736;2023-01-05T02:08:21;9.40;99.90
30648;DHT22;17683;53.360;9.736;2023-01-05T02:11:10;9.40;99.90
30648;DHT22;17683;53.360;9.736;2023-01-05T02:22:48;9.40;99.90
30648;DHT22;17683;53.360;9.736;2023-01-05T02:31:52;9.40;99.90
30648;DHT22;17683;53.360;9.736;2023-01-05T02:34:20;9.40;99.90
30648;DHT22;17683;53.360;9.736;2023-01-05T02:39:35;9.40;99.90
30648;DHT22;17683;53.360;9.736;2023-01-05T02:42:14;9.30;99.90
30648;DHT22;17683;53.360;9.736;2023-01-05T02:44:41;9.30;99.90
30648;DHT22;17683;53.360;9.736;2023-01-05T02:50:41;9.30;99.90
30648;DHT22;17683;53.360;9.736;2023-01-05T02:53:19;9.30;99.90
30648;DHT22;17683;53.360;9.736;2023-01-05T02:56:12;9.30;99.90
30648;DHT22;17683;53.360;9.736;2023-01-05T02:58:45;9.30;99.90
30648;DHT22;17683;53.360;9.736;2023-01-05T03:01:16;9.30;99.90
30648;DHT22;17683;53.360;9.736;2023-01-05T03:04:00;9.30;99.90
30648;DHT22;17683;53.360;9.736;2023-01-05T03:06:34;9.30;99.90
30648;DHT22;17683;53.360;9.736;2023-01-05T03:09:04;9.30;99.90
30648;DHT22;17683;53.360;9.736;2023-01-05T03:11:58;9.30;99.90
30648;DHT22;17683;53.360;9.736;2023-01-05T03:15:03;9.30;99.90
30648;DHT22;17683;53.360;9.736;2023-01-05T03:17:44;9.30;99.90
30648;DHT22;17683;53.360;9.736;2023-01-05T03:20:13;9.20;99.90
30648;DHT22;17683;53.360;9.736;2023-01-05T03:22:42;9.20;99.90
30648;DHT22;17683;53.360;9.736;2023-01-05T03:25:28;9.10;99.90
30648;DHT22;17683;53.360;9.736;2023-01-05T03:28:17;9.10;99.90
30648;DHT22;17683;53.360;9.736;2023-01-05T03:31:08;9.10;99.90
30648;DHT22;17683;53.360;9.736;2023-01-05T03:34:01;9.10;99.90
30648;DHT22;17683;53.360;9.736;2023-01-05T03:36:55;9.10;99.90
30648;DHT22;17683;53.360;9.736;2023-01-05T03:39:24;9.00;99.90
30648;DHT22;17683;53.360;9.736;2023-01-05T03:41:53;9.00;99.90
30648;DHT22;17683;53.360;9.736;2023-01-05T03:44:20;8.90;99.90
30648;DHT22;17683;53.360;9.736;2023-01-05T03:46:46;9.00;99.90
30648;DHT22;17683;53.360;9.736;2023-01-05T03:49:11;8.90;99.90
30648;DHT22;17683;53.360;9.736;2023-01-05T03:51:38;8.80;99.90
30648;DHT22;17683;53.360;9.736;2023-01-05T03:54:03;8.80;99.90
30648;DHT22;17683;53.360;9.736;2023-01-05T03:56:29;8.80;99.90
30648;DHT22;17683;53.360;9.736;2023-01-05T03:58:55;8.80;99.90
30648;DHT22;17683;53.360;9.736;2023-01-05T04:01:21;8.80;99.90
30648;DHT22;17683;53.360;9.736;2023-01-05T04:03:46;8.80;99.90
30648;DHT22;17683;53.360;9.736;2023-01-05T04:06:12;8.70;99.90
30648;DHT22;17683;53.360;9.736;2023-01-05T04:08:38;8.70;99.90
30648;DHT22;17683;53.360;9.736;2023-01-05T04:11:30;8.70;99.90
30648;DHT22;17683;53.360;9.736;2023-01-05T04:13:56;8.80;99.90
30648;DHT22;17683;53.360;9.736;2023-01-05T04:16:21;8.80;99.90
30648;DHT22;17683;53.360;9.736;2023-01-05T04:18:47;8.70;99.90
30648;DHT22;17683;53.360;9.736;2023-01-05T04:21:13;8.70;99.90
30648;DHT22;17683;53.360;9.736;2023-01-05T04:23:38;8.70;99.90
30648;DHT22;17683;53.360;9.736;2023-01-05T04:26:04;8.70;99.90
30648;DHT22;17683;53.360;9.736;2023-01-05T04:28:30;8.70;99.90
30648;DHT22;17683;53.360;9.736;2023-01-05T04:30:56;8.70;99.90
30648;DHT22;17683;53.360;9.736;2023-01-05T04:33:22;8.60;99.90
30648;DHT22;17683;53.360;9.736;2023-01-05T04:35:48;8.60;99.90
30648;DHT22;17683;53.360;9.736;2023-01-05T04:38:14;8.60;99.90
30648;DHT22;17683;53.360;9.736;2023-01-05T04:40:40;8.60;99.90
30648;DHT22;17683;53.360;9.736;2023-01-05T04:43:06;8.60;99.90
30648;DHT22;17683;53.360;9.736;2023-01-05T04:45:32;8.60;99.90
30648;DHT22;17683;53.360;9.736;2023-01-05T04:47:58;8.60;99.90
30648;DHT22;17683;53.360;9.736;2023-01-05T04:50:25;8.60;99.90
30648;DHT22;17683;53.360;9.736;2023-01-05T04:52:51;8.60;99.90
30648;DHT22;17683;53.360;9.736;2023-01-05T04:55:17;8.60;99.90
30648;DHT22;17683;53.360;9.736;2023-01-05T04:57:43;8.50;99.90
30648;DHT22;17683;53.360;9.736;2023-01-05T05:00:09;8.50;99.90
30648;DHT22;17683;53.360;9.736;2023-01-05T05:02:36;8.50;99.90
30648;DHT22;17683;53.360;9.736;2023-01-05T05:05:01;8.50;99.90
30648;DHT22;17683;53.360;9.736;2023-01-05T05:07:27;8.40;99.90
30648;DHT22;17683;53.360;9.736;2023-01-05T05:09:53;8.40;99.90
30648;DHT22;17683;53.360;9.736;2023-01-05T05:12:19;8.40;99.90
30648;DHT22;17683;53.360;9.736;2023-01-05T05:14:48;8.40;99.90
30648;DHT22;17683;53.360;9.736;2023-01-05T05:17:15;8.40;99.90
30648;DHT22;17683;53.360;9.736;2023-01-05T05:19:41;8.30;99.90
30648;DHT22;17683;53.360;9.736;2023-01-05T05:22:06;8.40;99.90
30648;DHT22;17683;53.360;9.736;2023-01-05T05:24:32;8.30;99.90
30648;DHT22;17683;53.360;9.736;2023-01-05T05:26:58;8.30;99.90
30648;DHT22;17683;53.360;9.736;2023-01-05T05:29:24;8.30;99.90
30648;DHT22;17683;53.360;9.736;2023-01-05T05:31:50;8.20;99.90
30648;DHT22;17683;53.360;9.736;2023-01-05T05:34:16;8.20;99.90
30648;DHT22;17683;53.360;9.736;2023-01-05T05:36:42;8.20;99.90
30648;DHT22;17683;53.360;9.736;2023-01-05T05:39:11;8.20;99.90
30648;DHT22;17683;53.360;9.736;2023-01-05T05:41:37;8.20;99.90
30648;DHT22;17683;53.360;9.736;2023-01-05T05:44:03;8.20;99.90
30648;DHT22;17683;53.360;9.736;2023-01-05T05:46:29;8.20;99.90
30648;DHT22;17683;53.360;9.736;2023-01-05T05:48:56;8.20;99.90
30648;DHT22;17683;53.360;9.736;2023-01-05T05:51:23;8.20;99.90
30648;DHT22;17683;53.360;9.736;2023-01-05T05:53:48;8.20;99.90
30648;DHT22;17683;53.360;9.736;2023-01-05T05:56:15;8.20;99.90
30648;DHT22;17683;53.360;9.736;2023-01-05T05:58:40;8.20;99.90
30648;DHT22;17683;53.360;9.736;2023-01-05T06:01:06;8.30;99.90
30648;DHT22;17683;53.360;9.736;2023-01-05T06:03:32;8.30;99.90
30648;DHT22;17683;53.360;9.736;2023-01-05T06:05:58;8.30;99.90
30648;DHT22;17683;53.360;9.736;2023-01-05T06:08:24;8.30;99.90
30648;DHT22;17683;53.360;9.736;2023-01-05T06:10:51;8.30;99.90
30648;DHT22;17683;53.360;9.736;2023-01-05T06:13:17;8.30;99.90
30648;DHT22;17683;53.360;9.736;2023-01-05T06:15:43;8.30;99.90
30648;DHT22;17683;53.360;9.736;2023-01-05T06:18:09;8.40;99.90
30648;DHT22;17683;53.360;9.736;2023-01-05T06:20:35;8.30;99.90
30648;DHT22;17683;53.360;9.736;2023-01-05T06:23:01;8.30;99.90
30648;DHT22;17683;53.360;9.736;2023-01-05T06:25:26;8.30;99.90
30648;DHT22;17683;53.360;9.736;2023-01-05T06:27:52;8.30;99.90
30648;DHT22;17683;53.360;9.736;2023-01-05T06:30:18;8.40;99.90
30648;DHT22;17683;53.360;9.736;2023-01-05T06:32:44;8.30;99.90
30648;DHT22;17683;53.360;9.736;2023-01-05T06:35:10;8.30;99.90
30648;DHT22;17683;53.360;9.736;2023-01-05T06:37:35;8.40;99.90
30648;DHT22;17683;53.360;9.736;2023-01-05T06:40:02;8.30;99.90
30648;DHT22;17683;53.360;9.736;2023-01-05T06:42:27;8.40;99.90
30648;DHT22;17683;53.360;9.736;2023-01-05T06:44:53;8.40;99.90
30648;DHT22;17683;53.360;9.736;2023-01-05T06:47:19;8.30;99.90
30648;DHT22;17683;53.360;9.736;2023-01-05T06:49:45;8.40;99.90
30648;DHT22;17683;53.360;9.736;2023-01-05T06:52:10;8.40;99.90
30648;DHT22;17683;53.360;9.736;2023-01-05T06:54:36;8.40;99.90
30648;DHT22;17683;53.360;9.736;2023-01-05T06:57:02;8.40;99.90
30648;DHT22;17683;53.360;9.736;2023-01-05T06:59:27;8.40;99.90
30648;DHT22;17683;53.360;9.736;2023-01-05T07:01:53;8.40;99.90
30648;DHT22;17683;53.360;9.736;2023-01-05T07:04:19;8.40;99.90
30648;DHT22;17683;53.360;9.736;2023-01-05T07:06:45;8.40;99.90
30648;DHT22;17683;53.360;9.736;2023-01-05T07:09:10;8.40;99.90
30648;DHT22;17683;53.360;9.736;2023-01-05T07:11:36;8.40;99.90
30648;DHT22;17683;53.360;9.736;2023-01-05T07:14:02;8.40;99.90
30648;DHT22;17683;53.360;9.736;2023-01-05T07:16:27;8.40;99.90
30648;DHT22;17683;53.360;9.736;2023-01-05T07:18:53;8.40;99.90
30648;DHT22;17683;53.360;9.736;2023-01-05T07:21:19;8.30;99.90
30648;DHT22;17683;53.360;9.736;2023-01-05T07:23:44;8.30;99.90
30648;DHT22;17683;53.360;9.736;2023-01-05T07:26:10;8.40;99.90
30648;DHT22;17683;53.360;9.736;2023-01-05T07:28:36;8.40;99.90
30648;DHT22;17683;53.360;9.736;2023-01-05T07:31:03;8.40;99.90
30648;DHT22;17683;53.360;9.736;2023-01-05T07:33:30;8.40;99.90
30648;DHT22;17683;53.360;9.736;2023-01-05T07:36:00;8.40;99.90
30648;DHT22;17683;53.360;9.736;2023-01-05T07:38:26;8.30;99.90
30648;DHT22;17683;53.360;9.736;2023-01-05T07:40:52;8.30;99.90
30648;DHT22;17683;53.360;9.736;2023-01-05T07:43:17;8.30;99.90
30648;DHT22;17683;53.360;9.736;2023-01-05T07:45:43;8.30;99.90
30648;DHT22;17683;53.360;9.736;2023-01-05T07:48:09;8.30;99.90
30648;DHT22;17683;53.360;9.736;2023-01-05T07:50:35;8.30;99.90
30648;DHT22;17683;53.360;9.736;2023-01-05T07:53:01;8.30;99.90
30648;DHT22;17683;53.360;9.736;2023-01-05T07:55:26;8.30;99.90
30648;DHT22;17683;53.360;9.736;2023-01-05T07:57:52;8.30;99.90
30648;DHT22;17683;53.360;9.736;2023-01-05T08:00:18;8.30;99.90
30648;DHT22;17683;53.360;9.736;2023-01-05T08:02:44;8.20;99.90
30648;DHT22;17683;53.360;9.736;2023-01-05T08:05:10;8.30;99.90
30648;DHT22;17683;53.360;9.736;2023-01-05T08:07:36;8.20;99.90
30648;DHT22;17683;53.360;9.736;2023-01-05T08:10:03;8.20;99.90
30648;DHT22;17683;53.360;9.736;2023-01-05T08:12:47;8.20;99.90
30648;DHT22;17683;53.360;9.736;2023-01-05T08:15:31;8.20;99.90
30648;DHT22;17683;53.360;9.736;2023-01-05T08:17:57;8.20;99.90
30648;DHT22;17683;53.360;9.736;2023-01-05T08:20:23;8.20;99.90
30648;DHT22;17683;53.360;9.736;2023-01-05T08:22:49;8.20;99.90
30648;DHT22;17683;53.360;9.736;2023-01-05T08:25:15;8.20;99.90
30648;DHT22;17683;53.360;9.736;2023-01-05T08:27:41;8.20;99.90
30648;DHT22;17683;53.360;9.736;2023-01-05T08:30:07;8.30;99.90
30648;DHT22;17683;53.360;9.736;2023-01-05T08:32:33;8.30;99.90
30648;DHT22;17683;53.360;9.736;2023-01-05T08:34:59;8.30;99.90
30648;DHT22;17683;53.360;9.736;2023-01-05T08:37:25;8.30;99.90
30648;DHT22;17683;53.360;9.736;2023-01-05T08:39:50;8.30;99.90
30648;DHT22;17683;53.360;9.736;2023-01-05T08:42:16;8.30;99.90
30648;DHT22;17683;53.360;9.736;2023-01-05T08:44:42;8.40;99.90
30648;DHT22;17683;53.360;9.736;2023-01-05T08:47:08;8.30;99.90
30648;DHT22;17683;53.360;9.736;2023-01-05T08:49:34;8.40;99.90
30648;DHT22;17683;53.360;9.736;2023-01-05T08:51:59;8.40;99.90
30648;DHT22;17683;53.360;9.736;2023-01-05T08:54:25;8.40;99.90
30648;DHT22;17683;53.360;9.736;2023-01-05T08:56:51;8.40;99.90
30648;DHT22;17683;53.360;9.736;2023-01-05T08:59:17;8.40;99.90
30648;DHT22;17683;53.360;9.736;2023-01-05T09:01:43;8.40;99.90
30648;DHT22;17683;53.360;9.736;2023-01-05T09:04:08;8.40;99.90
30648;DHT22;17683;53.360;9.736;2023-01-05T09:06:34;8.40;99.90
30648;DHT22;17683;53.360;9.736;2023-01-05T09:09:00;8.40;99.90
30648;DHT22;17683;53.360;9.736;2023-01-05T09:11:26;8.50;99.90
30648;DHT22;17683;53.360;9.736;2023-01-05T09:13:56;8.50;99.90
30648;DHT22;17683;53.360;9.736;2023-01-05T09:16:24;8.50;99.90
30648;DHT22;17683;53.360;9.736;2023-01-05T09:18:51;8.40;99.90
30648;DHT22;17683;53.360;9.736;2023-01-05T09:21:17;8.40;99.90
30648;DHT22;17683;53.360;9.736;2023-01-05T09:23:43;8.40;99.90
30648;DHT22;17683;53.360;9.736;2023-01-05T09:26:11;8.40;99.90
30648;DHT22;17683;53.360;9.736;2023-01-05T09:28:38;8.40;99.90
30648;DHT22;17683;53.360;9.736;2023-01-05T09:31:14;8.40;99.90
30648;DHT22;17683;53.360;9.736;2023-01-05T09:33:41;8.40;99.90
30648;DHT22;17683;53.360;9.736;2023-01-05T09:36:08;8.40;99.90
30648;DHT22;17683;53.360;9.736;2023-01-05T09:38:34;8.40;99.90
30648;DHT22;17683;53.360;9.736;2023-01-05T09:41:10;8.40;99.90
30648;DHT22;17683;53.360;9.736;2023-01-05T09:43:40;8.50;99.90
30648;DHT22;17683;53.360;9.736;2023-01-05T09:46:17;8.50;99.90
30648;DHT22;17683;53.360;9.736;2023-01-05T09:48:46;8.60;99.90
30648;DHT22;17683;53.360;9.736;2023-01-05T09:51:15;8.60;99.90
30648;DHT22;17683;53.360;9.736;2023-01-05T09:53:40;8.70;99.90
30648;DHT22;17683;53.360;9.736;2023-01-05T09:56:23;8.70;99.90
30648;DHT22;17683;53.360;9.736;2023-01-05T09:58:51;8.80;99.90
30648;DHT22;17683;53.360;9.736;2023-01-05T10:01:18;8.80;99.90
30648;DHT22;17683;53.360;9.736;2023-01-05T10:04:00;8.80;99.90
30648;DHT22;17683;53.360;9.736;2023-01-05T10:06:41;8.90;99.90
30648;DHT22;17683;53.360;9.736;2023-01-05T10:09:14;8.90;99.90
30648;DHT22;17683;53.360;9.736;2023-01-05T10:11:53;8.90;99.90
30648;DHT22;17683;53.360;9.736;2023-01-05T10:17:18;8.90;99.90
30648;DHT22;17683;53.360;9.736;2023-01-05T10:19:45;9.00;99.90
30648;DHT22;17683;53.360;9.736;2023-01-05T10:31:00;8.90;99.90
30648;DHT22;17683;53.360;9.736;2023-01-05T10:42:09;9.00;99.90
30648;DHT22;17683;53.360;9.736;2023-01-05T10:47:10;9.00;99.90
30648;DHT22;17683;53.360;9.736;2023-01-05T10:49:37;9.00;99.90
30648;DHT22;17683;53.360;9.736;2023-01-05T10:52:11;9.00;99.90
30648;DHT22;17683;53.360;9.736;2023-01-05T11:02:29;9.10;99.90
30648;DHT22;17683;53.360;9.736;2023-01-05T11:07:49;9.20;99.90
30648;DHT22;17683;53.360;9.736;2023-01-05T11:12:52;9.10;99.90
30648;DHT22;17683;53.360;9.736;2023-01-05T11:15:19;9.10;99.90
30648;DHT22;17683;53.360;9.736;2023-01-05T11:17:46;9.10;99.90
30648;DHT22;17683;53.360;9.736;2023-01-05T11:20:16;9.10;99.90
30648;DHT22;17683;53.360;9.736;2023-01-05T11:22:42;9.10;99.90
30648;DHT22;17683;53.360;9.736;2023-01-05T11:25:16;9.10;99.90
30648;DHT22;17683;53.360;9.736;2023-01-05T11:27:42;9.10;99.90
30648;DHT22;17683;53.360;9.736;2023-01-05T11:32:41;9.10;99.90
30648;DHT22;17683;53.360;9.736;2023-01-05T11:35:26;9.10;99.90
30648;DHT22;17683;53.360;9.736;2023-01-05T11:37:53;9.10;99.90
30648;DHT22;17683;53.360;9.736;2023-01-05T11:40:21;9.10;99.90
30648;DHT22;17683;53.360;9.736;2023-01-05T11:42:48;9.10;99.90
30648;DHT22;17683;53.360;9.736;2023-01-05T11:45:22;9.10;99.90
30648;DHT22;17683;53.360;9.736;2023-01-05T11:47:57;9.10;99.90
30648;DHT22;17683;53.360;9.736;2023-01-05T11:50:30;9.10;99.90
30648;DHT22;17683;53.360;9.736;2023-01-05T11:52:58;9.20;99.90
30648;DHT22;17683;53.360;9.736;2023-01-05T11:55:30;9.20;99.90
30648;DHT22;17683;53.360;9.736;2023-01-05T12:03:59;9.20;99.90
30648;DHT22;17683;53.360;9.736;2023-01-05T12:06:45;9.20;99.90
30648;DHT22;17683;53.360;9.736;2023-01-05T12:17:14;9.20;99.90
30648;DHT22;17683;53.360;9.736;2023-01-05T12:19:52;9.20;99.90
30648;DHT22;17683;53.360;9.736;2023-01-05T12:28:02;9.20;99.90
30648;DHT22;17683;53.360;9.736;2023-01-05T12:30:49;9.20;99.90
30648;DHT22;17683;53.360;9.736;2023-01-05T12:33:34;9.20;99.90
30648;DHT22;17683;53.360;9.736;2023-01-05T12:53:04;9.30;99.90
30648;DHT22;17683;53.360;9.736;2023-01-05T12:55:49;9.40;99.90
30648;DHT22;17683;53.360;9.736;2023-01-05T12:59:16;9.40;99.90
30648;DHT22;17683;53.360;9.736;2023-01-05T13:01:25;9.40;99.90
30648;DHT22;17683;53.360;9.736;2023-01-05T13:03:55;9.50;99.90
30648;DHT22;17683;53.360;9.736;2023-01-05T13:06:23;9.50;99.90
30648;DHT22;17683;53.360;9.736;2023-01-05T13:08:57;9.60;99.90
30648;DHT22;17683;53.360;9.736;2023-01-05T13:11:30;9.60;99.90
30648;DHT22;17683;53.360;9.736;2023-01-05T13:16:47;9.50;99.90
30648;DHT22;17683;53.360;9.736;2023-01-05T13:19:40;9.50;99.90
30648;DHT22;17683;53.360;9.736;2023-01-05T13:22:21;9.50;99.90
30648;DHT22;17683;53.360;9.736;2023-01-05T13:25:17;9.50;99.90
30648;DHT22;17683;53.360;9.736;2023-01-05T13:27:44;9.50;99.90
30648;DHT22;17683;53.360;9.736;2023-01-05T13:30:22;9.40;99.90
30648;DHT22;17683;53.360;9.736;2023-01-05T13:41:30;9.40;99.90
30648;DHT22;17683;53.360;9.736;2023-01-05T13:47:04;9.40;99.90
30648;DHT22;17683;53.360;9.736;2023-01-05T13:54:58;9.30;99.90
30648;DHT22;17683;53.360;9.736;2023-01-05T13:57:27;9.30;99.90
30648;DHT22;17683;53.360;9.736;2023-01-05T14:00:00;9.30;99.90
30648;DHT22;17683;53.360;9.736;2023-01-05T14:02:35;9.30;99.90
30648;DHT22;17683;53.360;9.736;2023-01-05T14:05:14;9.30;99.90
30648;DHT22;17683;53.360;9.736;2023-01-05T14:07:41;9.40;99.90
30648;DHT22;17683;53.360;9.736;2023-01-05T14:10:23;9.30;99.90
30648;DHT22;17683;53.360;9.736;2023-01-05T14:12:51;9.30;99.90
30648;DHT22;17683;53.360;9.736;2023-01-05T14:15:35;9.40;99.90
30648;DHT22;17683;53.360;9.736;2023-01-05T14:18:04;9.30;99.90
30648;DHT22;17683;53.360;9.736;2023-01-05T14:26:22;9.40;99.90
30648;DHT22;17683;53.360;9.736;2023-01-05T14:28:43;9.40;99.90
30648;DHT22;17683;53.360;9.736;2023-01-05T14:39:04;9.30;99.90
30648;DHT22;17683;53.360;9.736;2023-01-05T14:41:32;9.30;99.90
30648;DHT22;17683;53.360;9.736;2023-01-05T14:44:01;9.30;99.90
30648;DHT22;17683;53.360;9.736;2023-01-05T14:46:45;9.20;99.90
30648;DHT22;17683;53.360;9.736;2023-01-05T14:49:39;9.20;99.90
30648;DHT22;17683;53.360;9.736;2023-01-05T14:52:17;9.20;99.90
30648;DHT22;17683;53.360;9.736;2023-01-05T14:59:56;9.10;99.90
30648;DHT22;17683;53.360;9.736;2023-01-05T15:02:28;9.00;99.90
30648;DHT22;17683;53.360;9.736;2023-01-05T15:05:04;9.00;99.90
30648;DHT22;17683;53.360;9.736;2023-01-05T15:15:54;8.70;99.90
30648;DHT22;17683;53.360;9.736;2023-01-05T15:32:23;8.40;99.90
30648;DHT22;17683;53.360;9.736;2023-01-05T15:35:15;8.30;99.90
30648;DHT22;17683;53.360;9.736;2023-01-05T15:37:43;8.20;99.90
30648;DHT22;17683;53.360;9.736;2023-01-05T15:40:29;8.10;99.90
30648;DHT22;17683;53.360;9.736;2023-01-05T15:43:00;8.10;99.90
30648;DHT22;17683;53.360;9.736;2023-01-05T15:45:33;8.00;99.90
30648;DHT22;17683;53.360;9.736;2023-01-05T15:48:15;8.00;99.90
30648;DHT22;17683;53.360;9.736;2023-01-05T15:50:49;7.90;99.90
30648;DHT22;17683;53.360;9.736;2023-01-05T15:55:49;7.80;99.90
30648;DHT22;17683;53.360;9.736;2023-01-05T15:58:18;7.70;99.90
30648;DHT22;17683;53.360;9.736;2023-01-05T16:00:59;7.70;99.90
30648;DHT22;17683;53.360;9.736;2023-01-05T16:03:31;7.60;99.90
30648;DHT22;17683;53.360;9.736;2023-01-05T16:06:21;7.60;99.90
30648;DHT22;17683;53.360;9.736;2023-01-05T16:08:50;7.50;99.90
30648;DHT22;17683;53.360;9.736;2023-01-05T16:11:40;7.40;99.90
30648;DHT22;17683;53.360;9.736;2023-01-05T16:14:12;7.30;99.90
30648;DHT22;17683;53.360;9.736;2023-01-05T16:16:43;7.30;99.90
30648;DHT22;17683;53.360;9.736;2023-01-05T16:19:26;7.20;99.90
30648;DHT22;17683;53.360;9.736;2023-01-05T16:22:04;7.10;99.90
30648;DHT22;17683;53.360;9.736;2023-01-05T16:25:13;7.10;99.90
30648;DHT22;17683;53.360;9.736;2023-01-05T16:27:33;7.10;99.90
30648;DHT22;17683;53.360;9.736;2023-01-05T16:33:05;6.80;99.90
30648;DHT22;17683;53.360;9.736;2023-01-05T16:36:04;6.80;99.90
30648;DHT22;17683;53.360;9.736;2023-01-05T16:38:30;6.70;99.90
30648;DHT22;17683;53.360;9.736;2023-01-05T16:53:46;6.40;99.90
30648;DHT22;17683;53.360;9.736;2023-01-05T16:56:43;6.30;99.90
30648;DHT22;17683;53.360;9.736;2023-01-05T16:59:32;6.20;99.90
30648;DHT22;17683;53.360;9.736;2023-01-05T17:01:59;6.10;99.90
30648;DHT22;17683;53.360;9.736;2023-01-05T17:04:25;6.10;99.90
30648;DHT22;17683;53.360;9.736;2023-01-05T17:06:51;6.00;99.90
30648;DHT22;17683;53.360;9.736;2023-01-05T17:09:25;5.90;99.90
30648;DHT22;17683;53.360;9.736;2023-01-05T17:11:51;5.90;99.90
30648;DHT22;17683;53.360;9.736;2023-01-05T17:14:18;5.90;99.90
30648;DHT22;17683;53.360;9.736;2023-01-05T17:16:45;5.80;99.90
30648;DHT22;17683;53.360;9.736;2023-01-05T17:19:12;5.70;99.90
30648;DHT22;17683;53.360;9.736;2023-01-05T17:21:58;5.70;99.90
30648;DHT22;17683;53.360;9.736;2023-01-05T17:24:26;5.60;99.90
30648;DHT22;17683;53.360;9.736;2023-01-05T17:26:52;5.60;99.90
30648;DHT22;17683;53.360;9.736;2023-01-05T17:29:22;5.50;99.90
30648;DHT22;17683;53.360;9.736;2023-01-05T17:31:48;5.40;99.90
30648;DHT22;17683;53.360;9.736;2023-01-05T17:34:15;5.40;99.90
30648;DHT22;17683;53.360;9.736;2023-01-05T17:36:41;5.30;99.90
30648;DHT22;17683;53.360;9.736;2023-01-05T17:39:13;5.30;99.90
30648;DHT22;17683;53.360;9.736;2023-01-05T17:41:39;5.30;99.90
30648;DHT22;17683;53.360;9.736;2023-01-05T17:44:05;5.30;99.90
30648;DHT22;17683;53.360;9.736;2023-01-05T17:46:34;5.20;99.90
30648;DHT22;17683;53.360;9.736;2023-01-05T17:49:01;5.20;99.90
30648;DHT22;17683;53.360;9.736;2023-01-05T17:51:28;5.10;99.90
30648;DHT22;17683;53.360;9.736;2023-01-05T17:53:58;5.10;99.90
30648;DHT22;17683;53.360;9.736;2023-01-05T17:56:25;5.10;99.90
30648;DHT22;17683;53.360;9.736;2023-01-05T17:58:51;5.00;99.90
30648;DHT22;17683;53.360;9.736;2023-01-05T18:01:17;5.00;99.90
30648;DHT22;17683;53.360;9.736;2023-01-05T18:03:43;5.00;99.90
30648;DHT22;17683;53.360;9.736;2023-01-05T18:06:10;4.90;99.90
30648;DHT22;17683;53.360;9.736;2023-01-05T18:08:36;4.90;99.90
30648;DHT22;17683;53.360;9.736;2023-01-05T18:11:03;4.90;99.90
30648;DHT22;17683;53.360;9.736;2023-01-05T18:13:30;4.80;99.90
30648;DHT22;17683;53.360;9.736;2023-01-05T18:15:56;4.80;99.90
30648;DHT22;17683;53.360;9.736;2023-01-05T18:18:22;4.80;99.90
30648;DHT22;17683;53.360;9.736;2023-01-05T18:20:49;4.80;99.90
30648;DHT22;17683;53.360;9.736;2023-01-05T18:23:19;4.80;99.90
30648;DHT22;17683;53.360;9.736;2023-01-05T18:25:45;4.80;99.90
30648;DHT22;17683;53.360;9.736;2023-01-05T18:28:11;4.80;99.90
30648;DHT22;17683;53.360;9.736;2023-01-05T18:30:40;4.80;99.90
30648;DHT22;17683;53.360;9.736;2023-01-05T18:33:06;4.90;99.90
30648;DHT22;17683;53.360;9.736;2023-01-05T18:35:32;4.90;99.90
30648;DHT22;17683;53.360;9.736;2023-01-05T18:37:58;4.90;99.90
30648;DHT22;17683;53.360;9.736;2023-01-05T18:40:26;4.90;99.90
30648;DHT22;17683;53.360;9.736;2023-01-05T18:42:52;4.90;99.90
30648;DHT22;17683;53.360;9.736;2023-01-05T18:45:18;5.00;99.90
30648;DHT22;17683;53.360;9.736;2023-01-05T18:47:44;5.10;99.90
30648;DHT22;17683;53.360;9.736;2023-01-05T18:50:10;5.10;99.90
30648;DHT22;17683;53.360;9.736;2023-01-05T18:52:36;5.20;99.90
30648;DHT22;17683;53.360;9.736;2023-01-05T18:55:03;5.20;99.90
30648;DHT22;17683;53.360;9.736;2023-01-05T18:57:30;5.30;99.90
30648;DHT22;17683;53.360;9.736;2023-01-05T18:59:56;5.40;99.90